RPC1740 RPUI-RPLU

Flight info

Callsign RPC1740
Flight time 0h 58m
Altitude 5500
Route RPUI RPLU
Aircraft C172/L-S/C

Departure

Time 2026-05-04 11:19
Airport Iba Airport (RPUI)

Arrival

Time 2026-05-04 12:17
Airport Lubang Airport (RPLU)
Time Latitude Longitude Altitude Speed Heading
2026-05-04 11:12 15.32426 119.97057 -11 ft 0 kts 76°
2026-05-04 11:16 15.32382 119.97076 -12 ft 8 kts 228°
2026-05-04 11:16 15.32348 119.97054 -11 ft 8 kts 162°
2026-05-04 11:16 15.32312 119.97095 -13 ft 6 kts 177°
2026-05-04 11:17 15.32307 119.97087 -13 ft 2 kts 292°
2026-05-04 11:17 15.32309 119.97084 -14 ft 0 kts 323°
2026-05-04 11:19 15.34758 119.94919 712 ft 86 kts 311°
2026-05-04 11:19 15.34952 119.94324 865 ft 93 kts 276°
2026-05-04 11:19 15.34753 119.93709 1007 ft 92 kts 232°
2026-05-04 11:19 15.34167 119.93390 1149 ft 98 kts 192°
2026-05-04 11:20 15.33491 119.93505 1309 ft 101 kts 159°
2026-05-04 11:20 15.32824 119.93771 1478 ft 104 kts 160°
2026-05-04 11:20 15.32151 119.94050 1656 ft 103 kts 158°
2026-05-04 11:20 15.31492 119.94326 1832 ft 104 kts 158°
2026-05-04 11:22 15.26899 119.96180 2995 ft 95 kts 159°
2026-05-04 11:22 15.26288 119.96425 3158 ft 94 kts 158°
2026-05-04 11:23 15.25672 119.96665 3303 ft 95 kts 159°
2026-05-04 11:23 15.25049 119.96888 3449 ft 96 kts 160°
2026-05-04 11:24 15.21425 119.98002 4281 ft 97 kts 160°
2026-05-04 11:25 15.20776 119.98184 4435 ft 97 kts 160°
2026-05-04 11:25 15.20128 119.98367 4584 ft 96 kts 160°
2026-05-04 11:25 15.19496 119.98551 4725 ft 95 kts 160°
2026-05-04 11:26 15.18237 119.98899 5002 ft 91 kts 159°
2026-05-04 11:27 15.13834 120.00040 5509 ft 104 kts 160°
2026-05-04 11:28 15.13132 120.00220 5511 ft 104 kts 160°
2026-05-04 11:28 15.12425 120.00402 5511 ft 105 kts 160°
2026-05-04 11:28 15.11712 120.00588 5511 ft 106 kts 160°
2026-05-04 11:28 15.10995 120.00777 5509 ft 106 kts 160°
2026-05-04 11:29 15.10286 120.00967 5508 ft 107 kts 160°
2026-05-04 11:29 15.09648 120.01299 5503 ft 101 kts 139°
2026-05-04 11:29 15.09075 120.01721 5501 ft 101 kts 140°
2026-05-04 11:29 15.08500 120.02136 5501 ft 100 kts 140°
2026-05-04 11:31 15.04893 120.04723 5493 ft 100 kts 140°
2026-05-04 11:33 15.00819 120.07706 5503 ft 103 kts 140°
2026-05-04 11:33 15.00228 120.08138 5502 ft 103 kts 140°
2026-05-04 11:33 14.99639 120.08567 5502 ft 103 kts 140°
2026-05-04 11:34 14.99056 120.08991 5503 ft 104 kts 140°
2026-05-04 11:34 14.98462 120.09423 5502 ft 104 kts 140°
2026-05-04 11:34 14.97872 120.09850 5501 ft 103 kts 140°
2026-05-04 11:34 14.97284 120.10275 5497 ft 103 kts 140°
2026-05-04 11:35 14.96705 120.10694 5493 ft 101 kts 140°
2026-05-04 11:35 14.96123 120.11116 5491 ft 102 kts 140°
2026-05-04 11:35 14.95551 120.11533 5489 ft 102 kts 140°
2026-05-04 11:35 14.94972 120.11953 5491 ft 102 kts 140°
2026-05-04 11:36 14.94390 120.12376 5487 ft 102 kts 140°
2026-05-04 11:36 14.93808 120.12797 5490 ft 102 kts 140°
2026-05-04 11:36 14.93224 120.13216 5488 ft 102 kts 140°
2026-05-04 11:36 14.92640 120.13629 5487 ft 102 kts 140°
2026-05-04 11:37 14.92057 120.14041 5490 ft 102 kts 140°
2026-05-04 11:37 14.91468 120.14459 5484 ft 102 kts 140°
2026-05-04 11:37 14.90890 120.14872 5483 ft 99 kts 140°
2026-05-04 11:37 14.90325 120.15281 5482 ft 99 kts 141°
2026-05-04 11:38 14.89753 120.15691 5489 ft 102 kts 140°
2026-05-04 11:38 14.89157 120.16115 5498 ft 106 kts 140°
2026-05-04 11:38 14.88538 120.16557 5497 ft 110 kts 140°
2026-05-04 11:38 14.87916 120.17011 5497 ft 108 kts 140°
2026-05-04 11:39 14.87326 120.17440 5491 ft 102 kts 140°
2026-05-04 11:39 14.86734 120.17864 5489 ft 104 kts 140°
2026-05-04 11:40 14.82981 120.20525 5499 ft 116 kts 140°
2026-05-04 11:41 14.82321 120.20999 5501 ft 114 kts 140°
2026-05-04 11:41 14.81677 120.21460 5489 ft 111 kts 140°
2026-05-04 11:41 14.81052 120.21901 5480 ft 107 kts 140°
2026-05-04 11:41 14.80449 120.22323 5481 ft 103 kts 140°
2026-05-04 11:42 14.79864 120.22731 5481 ft 101 kts 140°
2026-05-04 11:42 14.79214 120.22981 5481 ft 104 kts 167°
2026-05-04 11:42 14.78496 120.23070 5480 ft 103 kts 166°
2026-05-04 11:42 14.77779 120.23161 5482 ft 103 kts 166°
2026-05-04 11:43 14.77075 120.23249 5483 ft 103 kts 166°
2026-05-04 11:43 14.76362 120.23339 5480 ft 103 kts 166°
2026-05-04 11:43 14.75659 120.23428 5483 ft 102 kts 166°
2026-05-04 11:43 14.74953 120.23515 5481 ft 102 kts 166°
2026-05-04 11:44 14.74245 120.23606 5481 ft 102 kts 166°
2026-05-04 11:44 14.73537 120.23674 5482 ft 102 kts 169°
2026-05-04 11:44 14.72829 120.23725 5483 ft 104 kts 169°
2026-05-04 11:44 14.72099 120.23779 5489 ft 106 kts 169°
2026-05-04 11:45 14.71352 120.23836 5495 ft 108 kts 169°
2026-05-04 11:45 14.70592 120.23894 5500 ft 110 kts 169°
2026-05-04 11:45 14.69826 120.23951 5500 ft 111 kts 169°
2026-05-04 11:45 14.69054 120.23997 5499 ft 112 kts 174°
2026-05-04 11:46 14.68268 120.23891 5499 ft 116 kts 190°
2026-05-04 11:46 14.67499 120.23681 5500 ft 116 kts 189°
2026-05-04 11:46 14.66714 120.23507 5499 ft 115 kts 185°
2026-05-04 11:46 14.65930 120.23373 5499 ft 113 kts 182°
2026-05-04 11:47 14.65149 120.23251 5497 ft 114 kts 183°
2026-05-04 11:47 14.64375 120.23119 5498 ft 113 kts 183°
2026-05-04 11:47 14.63592 120.22985 5497 ft 113 kts 183°
2026-05-04 11:47 14.62822 120.22860 5496 ft 113 kts 183°
2026-05-04 11:48 14.62043 120.22731 5494 ft 113 kts 183°
2026-05-04 11:48 14.61268 120.22601 5495 ft 113 kts 183°
2026-05-04 11:48 14.60490 120.22474 5490 ft 113 kts 183°
2026-05-04 11:48 14.59714 120.22343 5491 ft 112 kts 183°
2026-05-04 11:49 14.58950 120.22210 5491 ft 112 kts 183°
2026-05-04 11:49 14.58175 120.22077 5491 ft 113 kts 183°
2026-05-04 11:49 14.57398 120.21949 5489 ft 112 kts 183°
2026-05-04 11:49 14.56627 120.21821 5491 ft 112 kts 183°
2026-05-04 11:50 14.55852 120.21692 5492 ft 113 kts 183°
2026-05-04 11:50 14.55073 120.21563 5490 ft 113 kts 183°
2026-05-04 11:50 14.54308 120.21438 5493 ft 112 kts 183°
2026-05-04 11:50 14.53535 120.21305 5490 ft 113 kts 183°
2026-05-04 11:51 14.52759 120.21168 5489 ft 113 kts 183°
2026-05-04 11:51 14.51975 120.21031 5490 ft 114 kts 183°
2026-05-04 11:51 14.51193 120.20895 5493 ft 114 kts 183°
2026-05-04 11:51 14.50415 120.20758 5496 ft 115 kts 183°
2026-05-04 11:52 14.49630 120.20622 5494 ft 114 kts 183°
2026-05-04 11:52 14.48848 120.20483 5492 ft 114 kts 183°
2026-05-04 11:52 14.48065 120.20345 5492 ft 114 kts 183°
2026-05-04 11:52 14.47286 120.20207 5490 ft 113 kts 183°
2026-05-04 11:53 14.46517 120.20071 5494 ft 113 kts 183°
2026-05-04 11:53 14.45737 120.19930 5494 ft 114 kts 183°
2026-05-04 11:53 14.44956 120.19786 5493 ft 114 kts 183°
2026-05-04 11:53 14.44177 120.19641 5497 ft 113 kts 183°
2026-05-04 11:55 14.38725 120.18844 5493 ft 112 kts 175°
2026-05-04 11:55 14.37948 120.18815 5493 ft 112 kts 175°
2026-05-04 11:56 14.37165 120.18784 5495 ft 112 kts 175°
2026-05-04 11:56 14.36380 120.18752 5496 ft 113 kts 175°
2026-05-04 11:56 14.35602 120.18717 5497 ft 113 kts 175°
2026-05-04 11:56 14.34813 120.18668 5497 ft 115 kts 180°
2026-05-04 11:57 14.34019 120.18534 5500 ft 115 kts 182°
2026-05-04 11:57 14.33226 120.18398 5500 ft 115 kts 182°
2026-05-04 11:57 14.32438 120.18263 5499 ft 115 kts 182°
2026-05-04 11:57 14.31663 120.18129 5496 ft 114 kts 182°
2026-05-04 11:58 14.30882 120.17996 5496 ft 113 kts 182°
2026-05-04 11:58 14.30109 120.17870 5496 ft 112 kts 182°
2026-05-04 11:58 14.29342 120.17745 5492 ft 111 kts 182°
2026-05-04 11:58 14.28580 120.17615 5493 ft 111 kts 182°
2026-05-04 11:59 14.27829 120.17484 5486 ft 111 kts 182°
2026-05-04 11:59 14.27069 120.17353 5485 ft 111 kts 182°
2026-05-04 11:59 14.26309 120.17222 5487 ft 111 kts 182°
2026-05-04 11:59 14.25545 120.17088 5484 ft 111 kts 182°
2026-05-04 12:00 14.24780 120.16955 5482 ft 111 kts 182°
2026-05-04 12:00 14.24017 120.16829 5484 ft 111 kts 182°
2026-05-04 12:00 14.23262 120.16708 5485 ft 111 kts 182°
2026-05-04 12:00 14.22496 120.16585 5483 ft 111 kts 182°
2026-05-04 12:01 14.21740 120.16464 5486 ft 111 kts 182°
2026-05-04 12:01 14.20980 120.16335 5482 ft 110 kts 182°
2026-05-04 12:02 14.16460 120.15553 5482 ft 110 kts 182°
2026-05-04 12:03 14.15705 120.15419 5487 ft 110 kts 182°
2026-05-04 12:03 14.14950 120.15283 5484 ft 110 kts 184°
2026-05-04 12:03 14.14199 120.15144 5490 ft 109 kts 182°
2026-05-04 12:03 14.13459 120.15017 5487 ft 109 kts 182°
2026-05-04 12:04 14.12706 120.14895 5490 ft 109 kts 182°
2026-05-04 12:04 14.11950 120.14769 5492 ft 110 kts 182°
2026-05-04 12:04 14.11194 120.14643 5490 ft 110 kts 182°
2026-05-04 12:04 14.10438 120.14521 5492 ft 110 kts 182°
2026-05-04 12:05 14.09689 120.14399 5490 ft 110 kts 182°
2026-05-04 12:05 14.08929 120.14270 5493 ft 111 kts 182°
2026-05-04 12:05 14.08167 120.14151 5495 ft 111 kts 181°
2026-05-04 12:05 14.07401 120.14039 5500 ft 112 kts 181°
2026-05-04 12:06 14.06636 120.13925 5500 ft 113 kts 181°
2026-05-04 12:06 14.05857 120.13806 5498 ft 114 kts 181°
2026-05-04 12:06 14.05075 120.13677 5500 ft 114 kts 182°
2026-05-04 12:06 14.04296 120.13549 5503 ft 113 kts 182°
2026-05-04 12:07 14.03514 120.13424 5466 ft 114 kts 182°
2026-05-04 12:07 14.02733 120.13294 5380 ft 114 kts 182°
2026-05-04 12:07 14.01946 120.13164 5253 ft 114 kts 182°
2026-05-04 12:07 14.01170 120.13038 5127 ft 113 kts 182°
2026-05-04 12:08 14.00393 120.12913 5002 ft 113 kts 183°
2026-05-04 12:08 13.99620 120.12790 4862 ft 112 kts 183°
2026-05-04 12:08 13.98847 120.12670 4745 ft 112 kts 183°
2026-05-04 12:08 13.98079 120.12552 4615 ft 111 kts 182°
2026-05-04 12:09 13.97314 120.12431 4481 ft 111 kts 182°
2026-05-04 12:09 13.96550 120.12306 4340 ft 111 kts 182°
2026-05-04 12:09 13.95789 120.12182 4193 ft 110 kts 183°
2026-05-04 12:09 13.95053 120.12058 4041 ft 107 kts 183°
2026-05-04 12:10 13.94318 120.11935 3870 ft 107 kts 183°
2026-05-04 12:10 13.93586 120.11821 3715 ft 106 kts 183°
2026-05-04 12:10 13.92861 120.11713 3564 ft 105 kts 183°
2026-05-04 12:10 13.92139 120.11604 3409 ft 105 kts 183°
2026-05-04 12:11 13.91416 120.11494 3257 ft 105 kts 182°
2026-05-04 12:11 13.90940 120.11421 3158 ft 104 kts 183°
2026-05-04 12:11 13.90225 120.11310 2983 ft 103 kts 183°
2026-05-04 12:11 13.89509 120.11202 2810 ft 104 kts 183°
2026-05-04 12:12 13.88791 120.11095 2658 ft 104 kts 183°
2026-05-04 12:12 13.88112 120.10844 2484 ft 107 kts 206°
2026-05-04 12:12 13.87475 120.10441 2296 ft 108 kts 208°
2026-05-04 12:12 13.86872 120.09978 2115 ft 109 kts 220°
2026-05-04 12:13 13.86290 120.09478 1965 ft 109 kts 220°
2026-05-04 12:14 13.82646 120.06201 932 ft 101 kts 137°
2026-05-04 12:15 13.82202 120.06735 766 ft 96 kts 114°
2026-05-04 12:15 13.82154 120.07344 687 ft 82 kts 60°
2026-05-04 12:15 13.82520 120.07759 692 ft 77 kts 44°
2026-05-04 12:15 13.82902 120.08177 694 ft 82 kts 37°
2026-05-04 12:16 13.83372 120.08513 700 ft 81 kts 33°
2026-05-04 12:16 13.83854 120.08782 629 ft 83 kts 12°
2026-05-04 12:16 13.84449 120.08855 553 ft 80 kts 11°
2026-05-04 12:16 13.84896 120.09151 365 ft 78 kts 47°
2026-05-04 12:17 13.85142 120.09640 204 ft 76 kts 60°
2026-05-04 12:17 13.85362 120.10113 53 ft 70 kts 63°
2026-05-04 12:17 13.85531 120.10482 46 ft 47 kts 68°
2026-05-04 12:17 13.85645 120.10746 49 ft 32 kts 64°
2026-05-04 12:18 13.85713 120.10906 50 ft 7 kts 102°
2026-05-04 12:18 13.85682 120.10905 51 ft 7 kts 202°
2026-05-04 12:18 13.85641 120.10886 50 ft 0 kts 239°